Time;durP1;ratioP1;P1;durP2;ratioP2;P2;SDS_P1;SDS_P2;PMS_P1;PMS_P2;Temp;Humidity;BMP_temperature;BMP_pressure;BME280_temperature;BME280_humidity;BME280_pressure;Samples;Min_cycle;Max_cycle;Signal;HPM_P1;HPM_P2
2023/12/01 00:00:29;;;;;;;23.85;14.45;;;;;;;;;;5040935;28;20436;-69
2023/12/01 00:02:59;;;;;;;24.25;14.93;;;;;;;;;;5039851;28;23620;-69
2023/12/01 00:05:26;;;;;;;22.48;14.15;;;;;;;;;;5029539;28;20442;-69
2023/12/01 00:07:53;;;;;;;20.75;14.05;;;;;;;;;;5044667;28;20431;-69
2023/12/01 00:10:21;;;;;;;21.70;14.07;;;;;;;;;;5045948;28;20429;-69
2023/12/01 00:12:48;;;;;;;22.98;14.20;;;;;;;;;;5025823;28;20435;-69
2023/12/01 00:15:15;;;;;;;22.10;13.93;;;;;;;;;;5039126;28;21245;-69
2023/12/01 00:17:42;;;;;;;24.92;14.63;;;;;;;;;;5037380;28;20473;-69
2023/12/01 00:20:10;;;;;;;22.75;14.02;;;;;;;;;;5046233;28;20433;-69
2023/12/01 00:22:38;;;;;;;26.40;15.17;;;;;;;;;;5040259;28;20431;-69
2023/12/01 00:25:06;;;;;;;26.02;15.52;;;;;;;;;;5047809;28;20441;-69
2023/12/01 00:27:33;;;;;;;27.10;15.37;;;;;;;;;;5041993;28;20446;-69
2023/12/01 00:30:00;;;;;;;26.20;15.32;;;;;;;;;;5039039;28;20436;-69
2023/12/01 00:32:27;;;;;;;25.17;14.30;;;;;;;;;;5044074;28;20429;-69
2023/12/01 00:34:55;;;;;;;25.27;14.60;;;;;;;;;;5041390;28;20479;-69
2023/12/01 00:37:22;;;;;;;26.17;15.52;;;;;;;;;;5041985;28;20534;-70
2023/12/01 00:39:49;;;;;;;29.40;15.90;;;;;;;;;;5046901;28;20439;-69
2023/12/01 00:42:17;;;;;;;27.73;15.18;;;;;;;;;;5044719;28;20430;-69
2023/12/01 00:44:45;;;;;;;23.52;14.15;;;;;;;;;;5040566;28;20431;-69
2023/12/01 00:47:12;;;;;;;25.85;15.13;;;;;;;;;;5033884;28;20434;-69
2023/12/01 00:49:39;;;;;;;23.47;14.40;;;;;;;;;;5044520;28;20430;-70
2023/12/01 00:52:06;;;;;;;23.25;14.35;;;;;;;;;;5040948;28;21092;-69
2023/12/01 00:54:34;;;;;;;24.05;14.80;;;;;;;;;;5047691;28;20439;-69
2023/12/01 00:57:02;;;;;;;25.20;14.35;;;;;;;;;;5051839;28;20501;-70
2023/12/01 00:59:29;;;;;;;26.88;15.18;;;;;;;;;;5024550;28;20907;-70
2023/12/01 01:01:56;;;;;;;21.33;13.67;;;;;;;;;;5037043;28;20567;-69
2023/12/01 01:04:23;;;;;;;23.92;14.38;;;;;;;;;;5033857;28;20435;-70
2023/12/01 01:06:51;;;;;;;22.63;14.23;;;;;;;;;;5046427;28;20437;-69
2023/12/01 01:09:18;;;;;;;22.67;14.32;;;;;;;;;;5042212;28;20438;-69
2023/12/01 01:11:45;;;;;;;20.17;13.13;;;;;;;;;;5041908;28;20429;-69
2023/12/01 01:14:13;;;;;;;18.70;12.65;;;;;;;;;;5034108;28;20462;-69
2023/12/01 01:16:40;;;;;;;19.60;12.48;;;;;;;;;;5045981;28;20436;-69
2023/12/01 01:19:07;;;;;;;19.30;12.77;;;;;;;;;;5045508;28;21035;-69
2023/12/01 01:21:34;;;;;;;20.02;12.48;;;;;;;;;;5045264;28;20431;-69
2023/12/01 01:24:02;;;;;;;19.83;12.85;;;;;;;;;;5042981;28;20431;-69
2023/12/01 01:26:29;;;;;;;19.20;12.38;;;;;;;;;;5042443;28;20491;-70
2023/12/01 01:28:59;;;;;;;18.15;12.05;;;;;;;;;;5030654;28;20520;-69
2023/12/01 01:31:27;;;;;;;17.67;11.85;;;;;;;;;;5037282;28;20493;-69
2023/12/01 01:33:54;;;;;;;18.17;11.68;;;;;;;;;;5035807;28;20440;-69
2023/12/01 01:36:21;;;;;;;18.33;12.23;;;;;;;;;;5027766;28;20942;-69
2023/12/01 01:38:49;;;;;;;18.13;12.03;;;;;;;;;;5038950;28;20775;-69
2023/12/01 01:41:16;;;;;;;17.52;11.93;;;;;;;;;;5042167;28;20507;-69
2023/12/01 01:43:44;;;;;;;18.70;12.15;;;;;;;;;;5049173;28;20461;-69
2023/12/01 01:46:11;;;;;;;17.80;12.13;;;;;;;;;;5043814;28;20429;-69
2023/12/01 01:48:41;;;;;;;16.33;11.50;;;;;;;;;;5031152;28;20442;-70
2023/12/01 01:51:12;;;;;;;18.77;11.98;;;;;;;;;;5040047;28;20441;-70
2023/12/01 01:53:42;;;;;;;16.07;11.00;;;;;;;;;;5034450;28;20455;-69
2023/12/01 01:56:12;;;;;;;16.60;11.23;;;;;;;;;;5037278;28;20433;-69
2023/12/01 01:58:42;;;;;;;16.08;11.18;;;;;;;;;;5034182;28;20430;-70
2023/12/01 02:01:09;;;;;;;20.23;10.98;;;;;;;;;;5045130;28;20424;-70
2023/12/01 02:03:38;;;;;;;11.88;8.95;;;;;;;;;;5033525;28;20517;-70
2023/12/01 02:06:08;;;;;;;13.70;9.57;;;;;;;;;;5037184;28;20503;-69
2023/12/01 02:08:36;;;;;;;13.13;8.50;;;;;;;;;;5030272;28;20431;-70
2023/12/01 02:11:03;;;;;;;11.98;8.80;;;;;;;;;;5042764;28;20517;-69
2023/12/01 02:13:30;;;;;;;11.68;8.88;;;;;;;;;;5038064;28;20810;-69
2023/12/01 02:16:01;;;;;;;10.80;8.10;;;;;;;;;;5034798;28;20515;-69
2023/12/01 02:18:35;;;;;;;11.23;7.85;;;;;;;;;;5034742;28;20470;-69
2023/12/01 02:21:03;;;;;;;10.67;7.80;;;;;;;;;;5034555;28;20421;-69
2023/12/01 02:23:34;;;;;;;9.48;7.35;;;;;;;;;;5042264;28;21268;-69
2023/12/01 02:26:04;;;;;;;9.93;7.03;;;;;;;;;;5044022;28;20913;-69
2023/12/01 02:28:32;;;;;;;9.68;7.00;;;;;;;;;;5040404;28;20853;-69
2023/12/01 02:30:59;;;;;;;7.85;6.38;;;;;;;;;;5038162;28;20430;-69
2023/12/01 02:33:26;;;;;;;7.82;6.35;;;;;;;;;;5037242;28;20465;-69
2023/12/01 02:35:54;;;;;;;8.32;6.88;;;;;;;;;;5050138;28;20429;-69
2023/12/01 02:38:21;;;;;;;8.80;6.80;;;;;;;;;;5047165;28;20425;-69
2023/12/01 02:40:51;;;;;;;8.32;6.68;;;;;;;;;;5036053;28;20479;-69
2023/12/01 02:43:19;;;;;;;8.40;6.50;;;;;;;;;;5035831;28;20481;-69
2023/12/01 02:45:49;;;;;;;9.15;6.68;;;;;;;;;;5040563;28;20428;-69
2023/12/01 02:48:17;;;;;;;8.60;6.95;;;;;;;;;;5042066;28;20795;-69
2023/12/01 02:50:47;;;;;;;7.13;6.10;;;;;;;;;;5038050;28;20433;-69
2023/12/01 02:53:15;;;;;;;7.43;6.53;;;;;;;;;;5041333;28;21080;-69
2023/12/01 02:55:49;;;;;;;7.55;6.10;;;;;;;;;;5030275;28;20518;-69
2023/12/01 02:58:16;;;;;;;7.60;5.93;;;;;;;;;;5038502;28;20526;-69
2023/12/01 03:00:43;;;;;;;6.90;5.77;;;;;;;;;;5027055;28;20526;-69
2023/12/01 03:03:13;;;;;;;6.38;5.70;;;;;;;;;;5036702;28;20433;-69
2023/12/01 03:05:40;;;;;;;9.20;6.95;;;;;;;;;;5032551;28;20429;-69
2023/12/01 03:08:08;;;;;;;7.72;6.25;;;;;;;;;;5041480;28;20768;-69
2023/12/01 03:10:35;;;;;;;7.50;6.20;;;;;;;;;;5024519;28;20537;-69
2023/12/01 03:13:03;;;;;;;7.60;6.20;;;;;;;;;;5039070;28;20943;-69
2023/12/01 03:15:30;;;;;;;7.78;6.30;;;;;;;;;;5035428;28;21085;-69
2023/12/01 03:17:58;;;;;;;6.82;5.97;;;;;;;;;;5041170;28;20434;-69
2023/12/01 03:20:29;;;;;;;7.97;5.80;;;;;;;;;;5042620;28;20443;-69
2023/12/01 03:22:56;;;;;;;6.40;5.68;;;;;;;;;;5041144;28;20438;-70
2023/12/01 03:25:26;;;;;;;6.25;5.60;;;;;;;;;;5041524;28;20519;-69
2023/12/01 03:27:53;;;;;;;6.63;5.78;;;;;;;;;;5037136;28;20540;-69
2023/12/01 03:30:21;;;;;;;6.32;5.68;;;;;;;;;;5046651;28;20428;-69
2023/12/01 03:32:52;;;;;;;6.10;5.23;;;;;;;;;;5034977;28;20550;-69
2023/12/01 03:35:24;;;;;;;6.28;5.15;;;;;;;;;;5037822;28;20435;-69
2023/12/01 03:37:55;;;;;;;6.55;5.38;;;;;;;;;;5035340;28;20429;-69
2023/12/01 03:40:26;;;;;;;6.13;5.53;;;;;;;;;;5042289;28;20502;-69
2023/12/01 03:42:53;;;;;;;6.13;5.50;;;;;;;;;;5043335;28;20466;-69
2023/12/01 03:45:21;;;;;;;5.72;5.13;;;;;;;;;;5043675;28;20528;-69
2023/12/01 03:47:49;;;;;;;6.40;5.28;;;;;;;;;;5038831;28;20439;-69
2023/12/01 03:50:18;;;;;;;6.25;5.40;;;;;;;;;;5039310;28;20464;-69
2023/12/01 03:52:47;;;;;;;6.65;5.07;;;;;;;;;;5038883;28;20781;-69
2023/12/01 03:55:15;;;;;;;7.15;5.30;;;;;;;;;;5041835;28;20451;-69
2023/12/01 03:57:43;;;;;;;6.15;5.53;;;;;;;;;;5047259;28;20456;-69
2023/12/01 04:00:14;;;;;;;7.47;5.63;;;;;;;;;;5043810;28;20460;-69
2023/12/01 04:02:43;;;;;;;6.45;5.57;;;;;;;;;;5026040;28;20442;-69
2023/12/01 04:05:17;;;;;;;6.45;5.22;;;;;;;;;;5038024;28;20423;-69
2023/12/01 04:07:50;;;;;;;5.80;5.20;;;;;;;;;;5040037;28;20437;-69
2023/12/01 04:10:20;;;;;;;5.75;5.15;;;;;;;;;;5048021;28;20493;-69
2023/12/01 04:12:48;;;;;;;5.40;4.90;;;;;;;;;;5053904;28;20440;-68
2023/12/01 04:15:16;;;;;;;6.15;5.13;;;;;;;;;;5053364;28;20438;-69
2023/12/01 04:17:44;;;;;;;5.25;4.75;;;;;;;;;;5033629;28;20967;-69
2023/12/01 04:20:21;;;;;;;5.03;4.57;;;;;;;;;;5041592;28;20891;-69
2023/12/01 04:22:50;;;;;;;6.47;4.70;;;;;;;;;;5040011;28;20847;-69
2023/12/01 04:25:18;;;;;;;4.50;4.10;;;;;;;;;;5036459;28;20429;-69
2023/12/01 04:27:46;;;;;;;5.03;4.40;;;;;;;;;;5040041;28;21081;-70
2023/12/01 04:30:14;;;;;;;4.72;4.22;;;;;;;;;;5040604;28;20437;-69
2023/12/01 04:32:41;;;;;;;4.30;3.90;;;;;;;;;;5039750;28;21351;-69
2023/12/01 04:35:10;;;;;;;5.55;4.50;;;;;;;;;;5030539;28;20819;-69
2023/12/01 04:37:38;;;;;;;4.85;4.18;;;;;;;;;;5026844;28;20792;-69
2023/12/01 04:40:13;;;;;;;4.40;4.00;;;;;;;;;;5043084;28;20431;-71
2023/12/01 04:42:46;;;;;;;4.10;3.70;;;;;;;;;;5037371;28;20641;-69
2023/12/01 04:45:16;;;;;;;4.15;3.78;;;;;;;;;;5032744;28;20905;-69
2023/12/01 04:47:44;;;;;;;3.90;3.50;;;;;;;;;;5033577;28;20438;-70
2023/12/01 04:50:14;;;;;;;4.35;3.90;;;;;;;;;;5040809;28;21155;-69
2023/12/01 04:52:45;;;;;;;3.77;3.47;;;;;;;;;;5036482;28;20425;-69
2023/12/01 04:55:17;;;;;;;3.60;3.30;;;;;;;;;;5038620;28;20432;-69
2023/12/01 04:57:46;;;;;;;3.55;3.25;;;;;;;;;;5042248;28;21139;-69
2023/12/01 05:00:20;;;;;;;3.83;3.22;;;;;;;;;;5036265;28;20433;-68
2023/12/01 05:03:04;;;;;;;3.67;2.95;;;;;;;;;;5041177;28;20432;-69
2023/12/01 05:05:36;;;;;;;3.45;3.00;;;;;;;;;;5050942;28;20959;-69
2023/12/01 05:08:05;;;;;;;3.50;3.20;;;;;;;;;;5037368;28;20438;-69
2023/12/01 05:10:33;;;;;;;3.05;2.75;;;;;;;;;;5042020;28;20883;-69
2023/12/01 05:13:06;;;;;;;3.05;2.83;;;;;;;;;;5032151;28;20447;-69
2023/12/01 05:15:35;;;;;;;3.22;3.00;;;;;;;;;;5040518;28;20437;-70
2023/12/01 05:18:05;;;;;;;2.90;2.70;;;;;;;;;;5021350;28;20839;-69
2023/12/01 05:20:32;;;;;;;3.15;2.95;;;;;;;;;;5049450;28;20427;-69
2023/12/01 05:23:08;;;;;;;3.13;2.93;;;;;;;;;;5039129;28;20429;-69
2023/12/01 05:25:44;;;;;;;3.23;2.80;;;;;;;;;;5025446;28;20451;-69
2023/12/01 05:28:11;;;;;;;4.82;3.42;;;;;;;;;;5038022;28;20443;-69
2023/12/01 05:30:41;;;;;;;3.72;3.03;;;;;;;;;;5038119;28;20441;-69
2023/12/01 05:33:08;;;;;;;3.30;3.00;;;;;;;;;;5041516;28;20484;-69
2023/12/01 05:35:37;;;;;;;3.20;2.90;;;;;;;;;;5022021;28;20455;-69
2023/12/01 05:38:04;;;;;;;3.88;3.13;;;;;;;;;;5038342;28;20435;-69
2023/12/01 05:40:35;;;;;;;3.80;3.50;;;;;;;;;;5027483;28;20539;-69
2023/12/01 05:43:04;;;;;;;3.50;3.20;;;;;;;;;;5036828;28;20441;-69
2023/12/01 05:45:33;;;;;;;4.05;3.70;;;;;;;;;;5036771;28;20485;-69
2023/12/01 05:48:01;;;;;;;3.93;3.60;;;;;;;;;;5021578;28;20437;-69
2023/12/01 05:50:31;;;;;;;4.65;4.25;;;;;;;;;;5032145;28;20438;-69
2023/12/01 05:52:59;;;;;;;4.65;4.10;;;;;;;;;;5041317;28;20437;-69
2023/12/01 05:55:30;;;;;;;4.40;4.00;;;;;;;;;;5030611;28;20983;-69
2023/12/01 05:57:58;;;;;;;4.72;4.20;;;;;;;;;;5033019;28;20502;-69
2023/12/01 06:00:29;;;;;;;5.30;4.80;;;;;;;;;;5044610;28;20508;-69
2023/12/01 06:03:01;;;;;;;5.95;4.70;;;;;;;;;;5033144;28;20447;-69
2023/12/01 06:05:28;;;;;;;5.05;4.55;;;;;;;;;;5033412;28;20429;-68
2023/12/01 06:07:58;;;;;;;5.78;5.00;;;;;;;;;;5030387;28;20440;-69
2023/12/01 06:10:29;;;;;;;5.28;4.78;;;;;;;;;;5031117;28;20425;-68
2023/12/01 06:12:56;;;;;;;5.68;4.80;;;;;;;;;;5033082;28;20434;-69
2023/12/01 06:15:29;;;;;;;6.45;5.63;;;;;;;;;;5037523;28;20552;-69
2023/12/01 06:17:57;;;;;;;5.93;5.25;;;;;;;;;;5028690;28;20450;-68
2023/12/01 06:20:26;;;;;;;6.22;5.45;;;;;;;;;;5037188;28;20435;-68
2023/12/01 06:22:54;;;;;;;5.82;4.90;;;;;;;;;;5029892;28;20426;-69
2023/12/01 06:25:26;;;;;;;5.97;5.38;;;;;;;;;;5037634;28;20425;-68
2023/12/01 06:27:58;;;;;;;6.10;5.38;;;;;;;;;;5025297;28;20917;-68
2023/12/01 06:30:37;;;;;;;6.55;5.43;;;;;;;;;;5029246;28;20534;-68
2023/12/01 06:33:06;;;;;;;8.00;6.05;;;;;;;;;;5028875;28;20434;-68
2023/12/01 06:35:34;;;;;;;7.35;6.00;;;;;;;;;;5028670;28;21308;-68
2023/12/01 06:38:08;;;;;;;8.07;6.28;;;;;;;;;;5037445;28;20523;-71
2023/12/01 06:40:35;;;;;;;7.00;5.97;;;;;;;;;;5033623;28;20430;-69
2023/12/01 06:43:09;;;;;;;7.75;6.05;;;;;;;;;;5039561;28;20528;-68
2023/12/01 06:45:39;;;;;;;7.97;6.28;;;;;;;;;;5042310;28;20483;-69
2023/12/01 06:48:07;;;;;;;6.68;5.40;;;;;;;;;;5043083;28;20426;-68
2023/12/01 06:50:34;;;;;;;6.18;5.22;;;;;;;;;;5039221;28;21040;-68
2023/12/01 06:53:06;;;;;;;5.22;4.72;;;;;;;;;;5042452;28;20528;-69
2023/12/01 06:55:35;;;;;;;6.37;5.27;;;;;;;;;;5036507;28;20432;-68
2023/12/01 06:58:02;;;;;;;6.90;4.95;;;;;;;;;;5043565;28;20437;-69
2023/12/01 07:00:29;;;;;;;6.05;5.10;;;;;;;;;;5040092;28;20453;-68
2023/12/01 07:03:06;;;;;;;5.28;4.47;;;;;;;;;;5039305;28;20502;-68
2023/12/01 07:05:37;;;;;;;4.70;4.20;;;;;;;;;;5037529;28;21117;-68
2023/12/01 07:08:05;;;;;;;5.03;4.53;;;;;;;;;;5025434;28;20482;-68
2023/12/01 07:10:32;;;;;;;5.47;4.75;;;;;;;;;;5047851;28;20438;-68
2023/12/01 07:13:03;;;;;;;5.28;4.65;;;;;;;;;;5040621;28;20438;-68
2023/12/01 07:15:31;;;;;;;5.32;4.82;;;;;;;;;;5049549;28;20481;-68
2023/12/01 07:18:08;;;;;;;4.90;4.35;;;;;;;;;;5045232;28;20526;-69
2023/12/01 07:20:35;;;;;;;5.20;4.70;;;;;;;;;;5041266;28;20431;-69
2023/12/01 07:23:03;;;;;;;5.15;4.18;;;;;;;;;;5050309;28;20534;-69
2023/12/01 07:25:34;;;;;;;4.88;4.43;;;;;;;;;;5047157;28;20435;-69
2023/12/01 07:28:05;;;;;;;5.05;4.55;;;;;;;;;;5035814;28;20463;-70
2023/12/01 07:30:33;;;;;;;4.55;4.15;;;;;;;;;;5041295;28;20421;-69
2023/12/01 07:33:04;;;;;;;6.35;4.78;;;;;;;;;;5039897;28;20434;-69
2023/12/01 07:35:31;;;;;;;5.18;4.68;;;;;;;;;;5030920;28;20489;-71
2023/12/01 07:38:04;;;;;;;5.07;4.47;;;;;;;;;;5044912;28;20433;-69
2023/12/01 07:40:32;;;;;;;4.80;4.30;;;;;;;;;;5034489;28;20433;-69
2023/12/01 07:43:03;;;;;;;4.60;4.20;;;;;;;;;;5042270;28;20516;-69
2023/12/01 07:45:35;;;;;;;5.35;4.85;;;;;;;;;;5017388;28;20433;-69
2023/12/01 07:48:03;;;;;;;5.28;4.78;;;;;;;;;;5042133;28;20436;-69
2023/12/01 07:50:31;;;;;;;6.55;5.00;;;;;;;;;;5044469;28;20432;-69
2023/12/01 07:52:58;;;;;;;4.90;4.40;;;;;;;;;;5042357;28;20511;-69
2023/12/01 07:55:26;;;;;;;6.10;4.67;;;;;;;;;;5049818;28;20481;-69
2023/12/01 07:57:54;;;;;;;5.22;4.72;;;;;;;;;;5035732;28;20435;-69
2023/12/01 08:00:22;;;;;;;5.33;4.50;;;;;;;;;;5045225;28;20430;-68
2023/12/01 08:02:53;;;;;;;6.57;5.00;;;;;;;;;;5024203;28;20433;-68
2023/12/01 08:05:22;;;;;;;6.15;4.82;;;;;;;;;;5037611;28;20968;-68
2023/12/01 08:07:52;;;;;;;6.57;5.00;;;;;;;;;;5042453;28;20457;-69
2023/12/01 08:10:22;;;;;;;7.03;5.20;;;;;;;;;;5034751;28;20434;-69
2023/12/01 08:12:50;;;;;;;6.78;5.72;;;;;;;;;;5040509;28;20444;-69
2023/12/01 08:15:27;;;;;;;5.95;4.93;;;;;;;;;;5041479;28;20437;-69
2023/12/01 08:17:56;;;;;;;6.35;5.13;;;;;;;;;;5041392;28;20429;-69
2023/12/01 08:20:24;;;;;;;6.93;5.55;;;;;;;;;;5043042;28;20432;-69
2023/12/01 08:22:52;;;;;;;8.25;6.70;;;;;;;;;;5049300;28;20434;-69
2023/12/01 08:25:22;;;;;;;8.15;6.35;;;;;;;;;;5038157;28;21776;-69
2023/12/01 08:27:52;;;;;;;6.85;5.82;;;;;;;;;;5046420;28;20429;-69
2023/12/01 08:30:22;;;;;;;6.53;5.83;;;;;;;;;;5032951;28;20431;-69
2023/12/01 08:32:53;;;;;;;7.68;6.30;;;;;;;;;;5038228;28;20442;-69
2023/12/01 08:35:21;;;;;;;7.68;6.18;;;;;;;;;;5041149;28;20429;-69
2023/12/01 08:37:51;;;;;;;8.38;6.70;;;;;;;;;;5037640;28;20437;-71
2023/12/01 08:40:18;;;;;;;6.80;5.88;;;;;;;;;;5029626;28;21069;-69
2023/12/01 08:42:47;;;;;;;8.93;6.95;;;;;;;;;;5034307;28;20430;-69
2023/12/01 08:45:14;;;;;;;8.13;6.28;;;;;;;;;;5041548;28;20429;-69
2023/12/01 08:47:41;;;;;;;8.40;6.70;;;;;;;;;;5037534;28;20491;-69
2023/12/01 08:50:10;;;;;;;8.83;6.60;;;;;;;;;;5035193;28;20433;-69
2023/12/01 08:52:38;;;;;;;7.13;6.25;;;;;;;;;;5042749;28;20437;-69
2023/12/01 08:55:06;;;;;;;8.23;6.45;;;;;;;;;;5033284;28;20437;-69
2023/12/01 08:57:34;;;;;;;9.02;6.20;;;;;;;;;;5039090;28;20432;-69
2023/12/01 09:00:02;;;;;;;8.05;6.43;;;;;;;;;;5036153;28;20437;-69
2023/12/01 09:02:29;;;;;;;9.52;6.80;;;;;;;;;;5033630;28;20429;-69
2023/12/01 09:04:57;;;;;;;9.68;6.90;;;;;;;;;;5040621;28;20523;-69
2023/12/01 09:07:31;;;;;;;9.05;7.00;;;;;;;;;;5039049;28;20516;-69
2023/12/01 09:10:00;;;;;;;9.47;6.67;;;;;;;;;;5038752;28;20480;-69
2023/12/01 09:12:27;;;;;;;8.98;6.97;;;;;;;;;;5056479;28;20512;-69
2023/12/01 09:14:58;;;;;;;8.23;6.90;;;;;;;;;;5044830;28;20441;-69
2023/12/01 09:17:25;;;;;;;8.25;6.60;;;;;;;;;;5040664;28;20508;-69
2023/12/01 09:19:53;;;;;;;8.73;7.30;;;;;;;;;;5037518;28;20565;-70
2023/12/01 09:22:20;;;;;;;8.15;6.75;;;;;;;;;;5040064;28;20504;-69
2023/12/01 09:24:48;;;;;;;9.65;7.53;;;;;;;;;;5040772;28;20445;-69
2023/12/01 09:27:15;;;;;;;9.88;7.57;;;;;;;;;;5018110;28;20524;-69
2023/12/01 09:29:42;;;;;;;8.73;7.40;;;;;;;;;;5039330;28;20444;-69
2023/12/01 09:32:10;;;;;;;8.95;7.13;;;;;;;;;;5036491;28;20433;-69
2023/12/01 09:34:37;;;;;;;9.55;7.45;;;;;;;;;;5036525;28;20436;-69
2023/12/01 09:37:04;;;;;;;10.57;7.20;;;;;;;;;;5042146;28;20490;-68
2023/12/01 09:39:31;;;;;;;10.05;7.80;;;;;;;;;;5022713;28;20438;-69
2023/12/01 09:42:05;;;;;;;8.95;7.43;;;;;;;;;;5036844;28;21059;-69
2023/12/01 09:44:33;;;;;;;8.60;7.10;;;;;;;;;;5042175;28;20438;-69
2023/12/01 09:47:01;;;;;;;8.48;7.22;;;;;;;;;;5034939;28;20440;-69
2023/12/01 09:49:31;;;;;;;9.77;7.70;;;;;;;;;;5018407;28;21450;-69
2023/12/01 09:51:58;;;;;;;10.55;8.20;;;;;;;;;;5048887;28;20528;-70
2023/12/01 09:54:28;;;;;;;9.32;7.28;;;;;;;;;;5043454;28;20437;-69
2023/12/01 09:56:57;;;;;;;8.20;6.97;;;;;;;;;;5039783;28;20471;-69
2023/12/01 09:59:25;;;;;;;9.73;7.53;;;;;;;;;;5034512;28;20435;-69
2023/12/01 10:01:55;;;;;;;9.75;7.47;;;;;;;;;;5033702;28;20433;-69
2023/12/01 10:04:22;;;;;;;10.02;7.53;;;;;;;;;;5040246;28;20421;-69
2023/12/01 10:06:50;;;;;;;9.73;7.15;;;;;;;;;;5035915;28;20433;-69
2023/12/01 10:09:33;;;;;;;9.57;7.80;;;;;;;;;;5024287;28;20486;-69
2023/12/01 10:12:18;;;;;;;9.43;7.43;;;;;;;;;;5048682;28;20427;-70
2023/12/01 10:14:46;;;;;;;9.73;7.50;;;;;;;;;;5045226;28;20433;-69
2023/12/01 10:17:13;;;;;;;8.27;7.00;;;;;;;;;;5029279;28;20443;-69
2023/12/01 10:19:45;;;;;;;9.73;7.20;;;;;;;;;;5036160;28;20486;-69
2023/12/01 10:22:13;;;;;;;8.15;6.95;;;;;;;;;;5043811;28;20433;-69
2023/12/01 10:24:40;;;;;;;7.55;6.35;;;;;;;;;;5042675;28;20423;-69
2023/12/01 10:27:08;;;;;;;8.25;6.60;;;;;;;;;;5035757;28;20431;-69
2023/12/01 10:29:37;;;;;;;8.30;6.50;;;;;;;;;;5047395;28;20434;-69
2023/12/01 10:32:15;;;;;;;7.53;6.38;;;;;;;;;;5055367;28;20431;-69
2023/12/01 10:34:49;;;;;;;8.55;6.53;;;;;;;;;;5032649;28;20431;-69
2023/12/01 10:37:17;;;;;;;7.88;6.68;;;;;;;;;;5032421;28;20435;-69
2023/12/01 10:39:49;;;;;;;8.13;6.83;;;;;;;;;;5043720;28;21359;-68
2023/12/01 10:42:19;;;;;;;7.00;6.05;;;;;;;;;;5029637;28;20510;-69
2023/12/01 10:44:49;;;;;;;7.40;6.30;;;;;;;;;;5042845;28;20476;-69
2023/12/01 10:47:17;;;;;;;7.07;6.17;;;;;;;;;;5028193;28;20429;-69
2023/12/01 10:49:44;;;;;;;8.35;6.35;;;;;;;;;;5042362;28;20461;-69
2023/12/01 10:52:12;;;;;;;6.37;5.73;;;;;;;;;;5055692;28;20440;-69
2023/12/01 10:54:43;;;;;;;6.32;5.53;;;;;;;;;;5060409;28;20435;-69
2023/12/01 10:57:31;;;;;;;7.20;5.87;;;;;;;;;;5045823;28;21231;-69
2023/12/01 11:00:00;;;;;;;6.30;5.70;;;;;;;;;;5045733;28;20439;-69
2023/12/01 11:02:31;;;;;;;6.20;5.60;;;;;;;;;;5043866;28;20511;-68
2023/12/01 11:04:59;;;;;;;6.10;5.20;;;;;;;;;;5036266;28;20510;-69
2023/12/01 11:07:27;;;;;;;5.97;4.85;;;;;;;;;;5048149;28;20461;-69
2023/12/01 11:10:13;;;;;;;6.07;4.77;;;;;;;;;;5036163;28;20468;-69
2023/12/01 11:12:59;;;;;;;12.63;7.32;;;;;;;;;;5039508;28;20437;-69
2023/12/01 11:15:28;;;;;;;8.20;5.75;;;;;;;;;;5038528;28;20443;-68
2023/12/01 11:17:58;;;;;;;5.03;4.18;;;;;;;;;;5018508;28;20441;-68
2023/12/01 11:20:33;;;;;;;5.03;4.40;;;;;;;;;;5054917;28;20439;-70
2023/12/01 11:23:13;;;;;;;5.22;4.47;;;;;;;;;;5050746;28;20994;-69
2023/12/01 11:25:46;;;;;;;3.75;3.42;;;;;;;;;;5038916;28;20423;-69
2023/12/01 11:28:20;;;;;;;3.60;3.30;;;;;;;;;;5041685;28;20525;-69
2023/12/01 11:31:13;;;;;;;3.93;3.63;;;;;;;;;;5042823;28;20441;-69
2023/12/01 11:33:41;;;;;;;3.78;3.47;;;;;;;;;;5037930;28;20510;-69
2023/12/01 11:36:29;;;;;;;3.70;3.30;;;;;;;;;;5016750;28;20848;-69
2023/12/01 11:39:17;;;;;;;3.97;3.58;;;;;;;;;;5048205;28;20460;-69
2023/12/01 11:41:47;;;;;;;3.50;3.20;;;;;;;;;;5048372;28;20751;-70
2023/12/01 11:44:27;;;;;;;4.45;3.35;;;;;;;;;;5054925;28;20434;-69
2023/12/01 11:46:58;;;;;;;3.50;3.30;;;;;;;;;;5048068;28;20434;-69
2023/12/01 11:49:30;;;;;;;3.75;3.45;;;;;;;;;;5035504;28;21070;-69
2023/12/01 11:51:58;;;;;;;4.13;3.70;;;;;;;;;;5037146;28;20940;-69
2023/12/01 11:54:26;;;;;;;5.25;4.22;;;;;;;;;;5043065;28;20429;-69
2023/12/01 11:56:55;;;;;;;4.10;3.80;;;;;;;;;;5038367;28;20437;-69
2023/12/01 11:59:30;;;;;;;4.93;3.80;;;;;;;;;;5042486;28;20522;-69
2023/12/01 12:01:57;;;;;;;4.28;3.88;;;;;;;;;;5039372;28;20923;-69
2023/12/01 12:04:24;;;;;;;4.22;3.83;;;;;;;;;;5046393;28;20500;-69
2023/12/01 12:06:52;;;;;;;4.20;3.80;;;;;;;;;;5038373;28;20434;-69
2023/12/01 12:09:19;;;;;;;4.28;3.88;;;;;;;;;;5047675;28;20514;-69
2023/12/01 12:11:55;;;;;;;4.65;4.25;;;;;;;;;;5050550;28;20807;-69
2023/12/01 12:14:23;;;;;;;6.85;4.55;;;;;;;;;;5027541;28;20432;-69
2023/12/01 12:16:51;;;;;;;4.90;4.40;;;;;;;;;;5021458;28;20488;-69
2023/12/01 12:19:19;;;;;;;5.22;4.72;;;;;;;;;;5038973;28;20433;-69
2023/12/01 12:21:49;;;;;;;4.20;3.80;;;;;;;;;;5040538;28;20465;-69
2023/12/01 12:24:19;;;;;;;4.63;4.23;;;;;;;;;;5050154;28;20429;-69
2023/12/01 12:26:55;;;;;;;4.80;4.30;;;;;;;;;;5038291;28;20524;-69
2023/12/01 12:29:24;;;;;;;4.85;4.35;;;;;;;;;;5046773;28;21007;-69
2023/12/01 12:31:52;;;;;;;6.75;4.75;;;;;;;;;;5040126;28;20446;-70
2023/12/01 12:34:19;;;;;;;5.30;4.80;;;;;;;;;;5050720;28;20432;-69
2023/12/01 12:36:50;;;;;;;6.60;5.13;;;;;;;;;;5037521;28;20466;-69
2023/12/01 12:39:19;;;;;;;6.10;5.10;;;;;;;;;;5023890;28;20431;-69
2023/12/01 12:41:53;;;;;;;5.25;4.75;;;;;;;;;;5038134;28;20577;-69
2023/12/01 12:44:20;;;;;;;6.90;4.72;;;;;;;;;;5039752;28;20911;-69
2023/12/01 12:47:01;;;;;;;6.65;4.90;;;;;;;;;;5025303;28;20435;-69
2023/12/01 12:49:31;;;;;;;6.60;5.25;;;;;;;;;;5033170;28;20838;-69
2023/12/01 12:51:59;;;;;;;7.07;5.30;;;;;;;;;;5041254;28;20437;-69
2023/12/01 12:54:29;;;;;;;5.93;4.93;;;;;;;;;;5033215;28;20440;-69
2023/12/01 12:56:56;;;;;;;6.10;5.20;;;;;;;;;;5044297;28;20957;-69
2023/12/01 12:59:24;;;;;;;7.15;5.93;;;;;;;;;;5036914;28;21118;-69
2023/12/01 13:01:52;;;;;;;6.78;6.05;;;;;;;;;;5029702;28;20435;-69
2023/12/01 13:04:20;;;;;;;6.10;4.80;;;;;;;;;;5036248;28;20540;-69
2023/12/01 13:06:48;;;;;;;7.57;5.55;;;;;;;;;;5035513;28;20505;-69
2023/12/01 13:09:18;;;;;;;6.82;5.40;;;;;;;;;;5040040;28;20526;-68
2023/12/01 13:11:48;;;;;;;6.25;5.60;;;;;;;;;;5041449;28;20451;-69
2023/12/01 13:14:15;;;;;;;6.10;5.43;;;;;;;;;;5042867;28;20452;-69
2023/12/01 13:16:43;;;;;;;6.50;5.38;;;;;;;;;;5050823;28;20979;-69
2023/12/01 13:19:22;;;;;;;5.90;5.30;;;;;;;;;;5049300;28;21003;-69
2023/12/01 13:21:50;;;;;;;6.65;5.40;;;;;;;;;;5036320;28;20523;-69
2023/12/01 13:24:22;;;;;;;6.90;5.63;;;;;;;;;;5035107;28;20486;-69
2023/12/01 13:26:50;;;;;;;6.97;5.70;;;;;;;;;;5038431;28;20560;-69
2023/12/01 13:29:17;;;;;;;7.75;5.85;;;;;;;;;;5035638;28;20965;-69
2023/12/01 13:31:45;;;;;;;6.72;5.45;;;;;;;;;;5048833;28;20828;-69
2023/12/01 13:34:12;;;;;;;6.15;5.28;;;;;;;;;;5046800;28;20435;-69
2023/12/01 13:36:39;;;;;;;6.65;5.25;;;;;;;;;;5053718;28;20518;-69
2023/12/01 13:39:06;;;;;;;7.30;5.68;;;;;;;;;;5056230;28;20915;-69
2023/12/01 13:41:34;;;;;;;6.00;5.28;;;;;;;;;;5049963;28;20425;-69
2023/12/01 13:44:07;;;;;;;7.05;5.40;;;;;;;;;;5028728;28;20514;-69
2023/12/01 13:46:34;;;;;;;6.47;5.27;;;;;;;;;;5030503;28;20558;-69
2023/12/01 13:49:01;;;;;;;8.15;5.80;;;;;;;;;;5040646;28;20444;-69
2023/12/01 13:51:28;;;;;;;6.60;5.50;;;;;;;;;;5044410;28;20500;-69
2023/12/01 13:53:56;;;;;;;6.22;5.10;;;;;;;;;;5040192;28;20893;-69
2023/12/01 13:56:23;;;;;;;6.65;5.53;;;;;;;;;;5038249;28;20488;-69
2023/12/01 13:58:50;;;;;;;7.47;5.82;;;;;;;;;;5025755;28;20448;-69
2023/12/01 14:01:18;;;;;;;6.90;5.18;;;;;;;;;;5022096;28;20521;-69
2023/12/01 14:03:45;;;;;;;7.50;5.90;;;;;;;;;;5032268;28;20438;-69
2023/12/01 14:06:12;;;;;;;6.95;5.78;;;;;;;;;;5046265;28;20429;-69
2023/12/01 14:08:39;;;;;;;7.03;5.82;;;;;;;;;;5037377;28;20437;-69
2023/12/01 14:11:07;;;;;;;7.15;6.10;;;;;;;;;;5037472;28;20468;-69
2023/12/01 14:13:35;;;;;;;7.17;5.53;;;;;;;;;;5052353;28;20478;-69
2023/12/01 14:16:04;;;;;;;6.00;5.40;;;;;;;;;;5053708;28;20433;-69
2023/12/01 14:18:36;;;;;;;6.93;5.40;;;;;;;;;;5048724;28;20433;-69
2023/12/01 14:21:03;;;;;;;6.82;5.80;;;;;;;;;;5029998;28;20521;-69
2023/12/01 14:23:31;;;;;;;7.05;5.50;;;;;;;;;;5044272;28;20429;-69
2023/12/01 14:25:58;;;;;;;8.02;5.55;;;;;;;;;;5036306;28;20508;-69
2023/12/01 14:28:25;;;;;;;7.55;6.32;;;;;;;;;;5042751;28;20435;-69
2023/12/01 14:31:02;;;;;;;9.23;6.80;;;;;;;;;;5044594;28;20431;-69
2023/12/01 14:33:29;;;;;;;6.78;5.40;;;;;;;;;;5043105;28;20436;-69
2023/12/01 14:35:56;;;;;;;8.10;6.25;;;;;;;;;;5051620;28;20485;-69
2023/12/01 14:38:24;;;;;;;8.95;6.35;;;;;;;;;;5057644;28;20434;-69
2023/12/01 14:40:51;;;;;;;9.85;6.43;;;;;;;;;;5040154;28;20554;-69
2023/12/01 14:43:18;;;;;;;7.35;5.55;;;;;;;;;;5033870;28;20422;-69
2023/12/01 14:45:48;;;;;;;8.35;5.85;;;;;;;;;;5022115;28;20473;-69
2023/12/01 14:48:21;;;;;;;8.48;6.03;;;;;;;;;;5042360;28;21016;-69
2023/12/01 14:50:50;;;;;;;7.05;5.88;;;;;;;;;;5044401;28;20546;-69